sensor_id;sensor_type;location;lat;lon;timestamp;P1;durP1;ratioP1;P2;durP2;ratioP2
59972;SDS011;55298;-36.624;-64.282;2023-05-28T00:00:09;18.50;;;13.30;;
59972;SDS011;55298;-36.624;-64.282;2023-05-28T00:02:39;22.63;;;14.40;;
59972;SDS011;55298;-36.624;-64.282;2023-05-28T00:05:09;19.60;;;12.20;;
59972;SDS011;55298;-36.624;-64.282;2023-05-28T00:07:37;16.00;;;12.32;;
59972;SDS011;55298;-36.624;-64.282;2023-05-28T00:10:07;15.85;;;12.98;;
59972;SDS011;55298;-36.624;-64.282;2023-05-28T00:12:37;17.08;;;12.80;;
59972;SDS011;55298;-36.624;-64.282;2023-05-28T00:15:08;13.93;;;11.68;;
59972;SDS011;55298;-36.624;-64.282;2023-05-28T00:17:36;14.48;;;12.00;;
59972;SDS011;55298;-36.624;-64.282;2023-05-28T00:20:08;15.38;;;12.32;;
59972;SDS011;55298;-36.624;-64.282;2023-05-28T00:22:43;18.85;;;11.77;;
59972;SDS011;55298;-36.624;-64.282;2023-05-28T00:25:22;12.75;;;11.43;;
59972;SDS011;55298;-36.624;-64.282;2023-05-28T00:28:32;13.63;;;10.15;;
59972;SDS011;55298;-36.624;-64.282;2023-05-28T00:31:10;12.48;;;11.18;;
59972;SDS011;55298;-36.624;-64.282;2023-05-28T00:33:38;14.60;;;11.57;;
59972;SDS011;55298;-36.624;-64.282;2023-05-28T00:36:09;18.38;;;12.77;;
59972;SDS011;55298;-36.624;-64.282;2023-05-28T00:38:40;15.23;;;13.38;;
59972;SDS011;55298;-36.624;-64.282;2023-05-28T00:41:18;17.45;;;13.80;;
59972;SDS011;55298;-36.624;-64.282;2023-05-28T00:43:48;27.42;;;19.23;;
59972;SDS011;55298;-36.624;-64.282;2023-05-28T00:46:22;26.60;;;19.23;;
59972;SDS011;55298;-36.624;-64.282;2023-05-28T00:48:50;24.00;;;18.40;;
59972;SDS011;55298;-36.624;-64.282;2023-05-28T00:51:18;29.20;;;19.50;;
59972;SDS011;55298;-36.624;-64.282;2023-05-28T00:53:46;22.70;;;16.85;;
59972;SDS011;55298;-36.624;-64.282;2023-05-28T00:56:16;22.83;;;15.10;;
59972;SDS011;55298;-36.624;-64.282;2023-05-28T00:58:47;17.75;;;13.57;;
59972;SDS011;55298;-36.624;-64.282;2023-05-28T01:01:16;16.17;;;12.38;;
59972;SDS011;55298;-36.624;-64.282;2023-05-28T01:03:47;19.73;;;14.63;;
59972;SDS011;55298;-36.624;-64.282;2023-05-28T01:06:15;23.50;;;14.95;;
59972;SDS011;55298;-36.624;-64.282;2023-05-28T01:08:47;22.17;;;16.05;;
59972;SDS011;55298;-36.624;-64.282;2023-05-28T01:11:26;18.13;;;13.75;;
59972;SDS011;55298;-36.624;-64.282;2023-05-28T01:14:05;17.83;;;13.15;;
59972;SDS011;55298;-36.624;-64.282;2023-05-28T01:16:43;14.80;;;11.68;;
59972;SDS011;55298;-36.624;-64.282;2023-05-28T01:19:21;9.77;;;8.73;;
59972;SDS011;55298;-36.624;-64.282;2023-05-28T01:21:59;16.25;;;11.48;;
59972;SDS011;55298;-36.624;-64.282;2023-05-28T01:24:31;11.65;;;10.05;;
59972;SDS011;55298;-36.624;-64.282;2023-05-28T01:27:04;12.55;;;10.57;;
59972;SDS011;55298;-36.624;-64.282;2023-05-28T01:29:35;11.77;;;8.77;;
59972;SDS011;55298;-36.624;-64.282;2023-05-28T01:32:04;10.60;;;8.48;;
59972;SDS011;55298;-36.624;-64.282;2023-05-28T01:34:38;11.35;;;9.52;;
59972;SDS011;55298;-36.624;-64.282;2023-05-28T01:37:19;22.48;;;14.23;;
59972;SDS011;55298;-36.624;-64.282;2023-05-28T01:40:24;17.83;;;13.48;;
59972;SDS011;55298;-36.624;-64.282;2023-05-28T01:42:53;28.60;;;18.30;;
59972;SDS011;55298;-36.624;-64.282;2023-05-28T01:45:23;24.95;;;15.90;;
59972;SDS011;55298;-36.624;-64.282;2023-05-28T01:47:52;31.75;;;19.55;;
59972;SDS011;55298;-36.624;-64.282;2023-05-28T01:50:21;21.33;;;13.85;;
59972;SDS011;55298;-36.624;-64.282;2023-05-28T01:52:51;13.13;;;11.25;;
59972;SDS011;55298;-36.624;-64.282;2023-05-28T01:55:24;15.63;;;11.30;;
59972;SDS011;55298;-36.624;-64.282;2023-05-28T01:57:52;29.65;;;19.80;;
59972;SDS011;55298;-36.624;-64.282;2023-05-28T02:00:21;26.77;;;18.65;;
59972;SDS011;55298;-36.624;-64.282;2023-05-28T02:02:49;23.63;;;15.18;;
59972;SDS011;55298;-36.624;-64.282;2023-05-28T02:05:18;24.85;;;17.10;;
59972;SDS011;55298;-36.624;-64.282;2023-05-28T02:07:46;12.23;;;9.27;;
59972;SDS011;55298;-36.624;-64.282;2023-05-28T02:10:14;11.45;;;9.40;;
59972;SDS011;55298;-36.624;-64.282;2023-05-28T02:12:46;10.82;;;9.65;;
59972;SDS011;55298;-36.624;-64.282;2023-05-28T02:15:35;14.30;;;10.90;;
59972;SDS011;55298;-36.624;-64.282;2023-05-28T02:18:06;20.48;;;14.15;;
59972;SDS011;55298;-36.624;-64.282;2023-05-28T02:20:36;23.27;;;16.38;;
59972;SDS011;55298;-36.624;-64.282;2023-05-28T02:23:04;18.35;;;12.50;;
59972;SDS011;55298;-36.624;-64.282;2023-05-28T02:25:32;14.02;;;10.68;;
59972;SDS011;55298;-36.624;-64.282;2023-05-28T02:28:00;17.50;;;11.55;;
59972;SDS011;55298;-36.624;-64.282;2023-05-28T02:30:29;12.95;;;11.52;;
59972;SDS011;55298;-36.624;-64.282;2023-05-28T02:32:57;19.00;;;12.13;;
59972;SDS011;55298;-36.624;-64.282;2023-05-28T02:35:25;10.38;;;9.05;;
59972;SDS011;55298;-36.624;-64.282;2023-05-28T02:37:53;14.45;;;8.73;;
59972;SDS011;55298;-36.624;-64.282;2023-05-28T02:40:21;11.70;;;8.68;;
59972;SDS011;55298;-36.624;-64.282;2023-05-28T02:42:49;12.35;;;7.93;;
59972;SDS011;55298;-36.624;-64.282;2023-05-28T02:45:17;8.77;;;7.82;;
59972;SDS011;55298;-36.624;-64.282;2023-05-28T02:47:47;7.82;;;6.90;;
59972;SDS011;55298;-36.624;-64.282;2023-05-28T02:50:15;17.52;;;10.70;;
59972;SDS011;55298;-36.624;-64.282;2023-05-28T02:52:43;8.55;;;6.57;;
59972;SDS011;55298;-36.624;-64.282;2023-05-28T02:55:11;5.07;;;4.68;;
59972;SDS011;55298;-36.624;-64.282;2023-05-28T02:57:39;5.93;;;5.43;;
59972;SDS011;55298;-36.624;-64.282;2023-05-28T03:00:07;5.72;;;5.35;;
59972;SDS011;55298;-36.624;-64.282;2023-05-28T03:02:35;5.50;;;5.10;;
59972;SDS011;55298;-36.624;-64.282;2023-05-28T03:05:04;6.05;;;5.50;;
59972;SDS011;55298;-36.624;-64.282;2023-05-28T03:07:33;5.78;;;5.38;;
59972;SDS011;55298;-36.624;-64.282;2023-05-28T03:10:01;5.40;;;5.00;;
59972;SDS011;55298;-36.624;-64.282;2023-05-28T03:12:30;5.68;;;5.25;;
59972;SDS011;55298;-36.624;-64.282;2023-05-28T03:14:59;5.65;;;5.25;;
59972;SDS011;55298;-36.624;-64.282;2023-05-28T03:17:27;6.47;;;5.97;;
59972;SDS011;55298;-36.624;-64.282;2023-05-28T03:19:54;5.32;;;5.03;;
59972;SDS011;55298;-36.624;-64.282;2023-05-28T03:22:23;5.40;;;5.03;;
59972;SDS011;55298;-36.624;-64.282;2023-05-28T03:24:51;5.50;;;5.10;;
59972;SDS011;55298;-36.624;-64.282;2023-05-28T03:27:19;5.60;;;5.10;;
59972;SDS011;55298;-36.624;-64.282;2023-05-28T03:29:47;5.85;;;5.28;;
59972;SDS011;55298;-36.624;-64.282;2023-05-28T03:32:15;5.38;;;4.97;;
59972;SDS011;55298;-36.624;-64.282;2023-05-28T03:34:43;4.97;;;4.57;;
59972;SDS011;55298;-36.624;-64.282;2023-05-28T03:37:11;8.48;;;5.90;;
59972;SDS011;55298;-36.624;-64.282;2023-05-28T03:39:41;5.47;;;5.03;;
59972;SDS011;55298;-36.624;-64.282;2023-05-28T03:42:10;5.35;;;4.95;;
59972;SDS011;55298;-36.624;-64.282;2023-05-28T03:44:39;5.28;;;4.85;;
59972;SDS011;55298;-36.624;-64.282;2023-05-28T03:47:06;4.90;;;4.60;;
59972;SDS011;55298;-36.624;-64.282;2023-05-28T03:49:35;4.80;;;4.55;;
59972;SDS011;55298;-36.624;-64.282;2023-05-28T03:52:04;5.00;;;4.78;;
59972;SDS011;55298;-36.624;-64.282;2023-05-28T03:54:33;4.90;;;4.60;;
59972;SDS011;55298;-36.624;-64.282;2023-05-28T03:57:01;4.65;;;4.35;;
59972;SDS011;55298;-36.624;-64.282;2023-05-28T03:59:29;4.57;;;4.28;;
59972;SDS011;55298;-36.624;-64.282;2023-05-28T04:01:57;4.32;;;4.13;;
59972;SDS011;55298;-36.624;-64.282;2023-05-28T04:04:25;5.30;;;5.00;;
59972;SDS011;55298;-36.624;-64.282;2023-05-28T04:06:52;5.53;;;4.28;;
59972;SDS011;55298;-36.624;-64.282;2023-05-28T04:09:20;4.43;;;4.18;;
59972;SDS011;55298;-36.624;-64.282;2023-05-28T04:11:48;3.75;;;3.63;;
59972;SDS011;55298;-36.624;-64.282;2023-05-28T04:14:15;4.32;;;4.13;;
59972;SDS011;55298;-36.624;-64.282;2023-05-28T04:16:44;4.10;;;3.90;;
59972;SDS011;55298;-36.624;-64.282;2023-05-28T04:19:15;4.75;;;4.50;;
59972;SDS011;55298;-36.624;-64.282;2023-05-28T04:21:52;4.28;;;4.07;;
59972;SDS011;55298;-36.624;-64.282;2023-05-28T04:24:29;4.05;;;3.85;;
59972;SDS011;55298;-36.624;-64.282;2023-05-28T04:27:06;4.90;;;4.60;;
59972;SDS011;55298;-36.624;-64.282;2023-05-28T04:29:34;4.85;;;4.60;;
59972;SDS011;55298;-36.624;-64.282;2023-05-28T04:32:02;4.28;;;3.90;;
59972;SDS011;55298;-36.624;-64.282;2023-05-28T04:34:34;4.45;;;4.15;;
59972;SDS011;55298;-36.624;-64.282;2023-05-28T04:37:02;4.45;;;4.15;;
59972;SDS011;55298;-36.624;-64.282;2023-05-28T04:39:30;4.50;;;4.22;;
59972;SDS011;55298;-36.624;-64.282;2023-05-28T04:41:59;4.57;;;4.38;;
59972;SDS011;55298;-36.624;-64.282;2023-05-28T04:44:29;4.20;;;3.90;;
59972;SDS011;55298;-36.624;-64.282;2023-05-28T04:47:08;4.82;;;4.53;;
59972;SDS011;55298;-36.624;-64.282;2023-05-28T04:49:57;4.47;;;4.07;;
59972;SDS011;55298;-36.624;-64.282;2023-05-28T04:52:24;4.70;;;4.30;;
59972;SDS011;55298;-36.624;-64.282;2023-05-28T04:54:58;3.90;;;3.70;;
59972;SDS011;55298;-36.624;-64.282;2023-05-28T04:58:29;4.97;;;4.68;;
59972;SDS011;55298;-36.624;-64.282;2023-05-28T05:03:54;4.78;;;4.47;;
59972;SDS011;55298;-36.624;-64.282;2023-05-28T05:06:57;3.83;;;3.63;;
59972;SDS011;55298;-36.624;-64.282;2023-05-28T05:09:26;4.82;;;4.43;;
59972;SDS011;55298;-36.624;-64.282;2023-05-28T05:11:56;4.53;;;4.20;;
59972;SDS011;55298;-36.624;-64.282;2023-05-28T05:14:26;5.85;;;4.38;;
59972;SDS011;55298;-36.624;-64.282;2023-05-28T05:16:55;4.28;;;4.07;;
59972;SDS011;55298;-36.624;-64.282;2023-05-28T05:19:23;4.53;;;4.35;;
59972;SDS011;55298;-36.624;-64.282;2023-05-28T05:21:52;4.32;;;4.13;;
59972;SDS011;55298;-36.624;-64.282;2023-05-28T05:24:23;4.28;;;4.07;;
59972;SDS011;55298;-36.624;-64.282;2023-05-28T05:26:54;4.10;;;4.00;;
59972;SDS011;55298;-36.624;-64.282;2023-05-28T05:29:21;4.90;;;4.45;;
59972;SDS011;55298;-36.624;-64.282;2023-05-28T05:31:50;3.90;;;3.70;;
59972;SDS011;55298;-36.624;-64.282;2023-05-28T05:39:18;4.07;;;3.88;;
59972;SDS011;55298;-36.624;-64.282;2023-05-28T05:41:56;4.20;;;4.00;;
59972;SDS011;55298;-36.624;-64.282;2023-05-28T05:45:05;4.10;;;3.90;;
59972;SDS011;55298;-36.624;-64.282;2023-05-28T05:47:42;4.18;;;3.97;;
59972;SDS011;55298;-36.624;-64.282;2023-05-28T05:50:30;4.23;;;4.07;;
59972;SDS011;55298;-36.624;-64.282;2023-05-28T05:52:58;4.43;;;4.22;;
59972;SDS011;55298;-36.624;-64.282;2023-05-28T05:55:28;4.05;;;3.72;;
59972;SDS011;55298;-36.624;-64.282;2023-05-28T05:58:02;4.00;;;3.70;;
59972;SDS011;55298;-36.624;-64.282;2023-05-28T06:00:29;3.67;;;3.47;;
59972;SDS011;55298;-36.624;-64.282;2023-05-28T06:02:59;4.18;;;3.97;;
59972;SDS011;55298;-36.624;-64.282;2023-05-28T06:05:28;3.95;;;3.67;;
59972;SDS011;55298;-36.624;-64.282;2023-05-28T06:08:01;3.72;;;3.63;;
59972;SDS011;55298;-36.624;-64.282;2023-05-28T06:10:29;4.30;;;4.10;;
59972;SDS011;55298;-36.624;-64.282;2023-05-28T06:12:58;3.92;;;3.80;;
59972;SDS011;55298;-36.624;-64.282;2023-05-28T06:15:27;3.58;;;3.47;;
59972;SDS011;55298;-36.624;-64.282;2023-05-28T06:17:57;3.58;;;3.47;;
59972;SDS011;55298;-36.624;-64.282;2023-05-28T06:20:25;3.67;;;3.58;;
59972;SDS011;55298;-36.624;-64.282;2023-05-28T06:22:54;4.13;;;3.92;;
59972;SDS011;55298;-36.624;-64.282;2023-05-28T06:25:23;4.68;;;4.30;;
59972;SDS011;55298;-36.624;-64.282;2023-05-28T06:27:52;4.53;;;4.32;;
59972;SDS011;55298;-36.624;-64.282;2023-05-28T06:31:15;3.97;;;3.75;;
59972;SDS011;55298;-36.624;-64.282;2023-05-28T06:33:46;4.57;;;4.30;;
59972;SDS011;55298;-36.624;-64.282;2023-05-28T06:36:14;3.70;;;3.50;;
59972;SDS011;55298;-36.624;-64.282;2023-05-28T06:38:43;3.65;;;3.55;;
59972;SDS011;55298;-36.624;-64.282;2023-05-28T06:41:11;3.80;;;3.70;;
59972;SDS011;55298;-36.624;-64.282;2023-05-28T06:43:49;3.78;;;3.67;;
59972;SDS011;55298;-36.624;-64.282;2023-05-28T06:46:17;3.85;;;3.65;;
59972;SDS011;55298;-36.624;-64.282;2023-05-28T06:48:47;3.92;;;3.72;;
59972;SDS011;55298;-36.624;-64.282;2023-05-28T06:51:18;4.22;;;3.83;;
59972;SDS011;55298;-36.624;-64.282;2023-05-28T06:53:46;3.33;;;3.22;;
59972;SDS011;55298;-36.624;-64.282;2023-05-28T06:56:19;3.65;;;3.55;;
59972;SDS011;55298;-36.624;-64.282;2023-05-28T06:58:49;4.00;;;3.90;;
59972;SDS011;55298;-36.624;-64.282;2023-05-28T07:01:17;3.85;;;3.75;;
59972;SDS011;55298;-36.624;-64.282;2023-05-28T07:03:45;4.43;;;4.07;;
59972;SDS011;55298;-36.624;-64.282;2023-05-28T07:06:12;3.78;;;3.60;;
59972;SDS011;55298;-36.624;-64.282;2023-05-28T07:08:40;4.13;;;4.00;;
59972;SDS011;55298;-36.624;-64.282;2023-05-28T07:11:11;4.00;;;3.65;;
59972;SDS011;55298;-36.624;-64.282;2023-05-28T07:13:41;3.63;;;3.53;;
59972;SDS011;55298;-36.624;-64.282;2023-05-28T07:16:08;3.97;;;3.88;;
59972;SDS011;55298;-36.624;-64.282;2023-05-28T07:18:36;3.92;;;3.83;;
59972;SDS011;55298;-36.624;-64.282;2023-05-28T07:21:04;3.78;;;3.67;;
59972;SDS011;55298;-36.624;-64.282;2023-05-28T07:23:32;4.07;;;3.88;;
59972;SDS011;55298;-36.624;-64.282;2023-05-28T07:26:00;4.13;;;3.92;;
59972;SDS011;55298;-36.624;-64.282;2023-05-28T07:28:28;4.68;;;4.47;;
59972;SDS011;55298;-36.624;-64.282;2023-05-28T07:30:56;4.57;;;4.13;;
59972;SDS011;55298;-36.624;-64.282;2023-05-28T07:33:23;4.03;;;3.83;;
59972;SDS011;55298;-36.624;-64.282;2023-05-28T07:35:51;4.07;;;3.85;;
59972;SDS011;55298;-36.624;-64.282;2023-05-28T07:38:19;4.20;;;4.03;;
59972;SDS011;55298;-36.624;-64.282;2023-05-28T07:40:47;4.30;;;4.10;;
59972;SDS011;55298;-36.624;-64.282;2023-05-28T07:43:16;4.40;;;4.10;;
59972;SDS011;55298;-36.624;-64.282;2023-05-28T07:45:43;4.40;;;4.20;;
59972;SDS011;55298;-36.624;-64.282;2023-05-28T07:48:11;3.67;;;3.58;;
59972;SDS011;55298;-36.624;-64.282;2023-05-28T07:50:39;4.22;;;3.92;;
59972;SDS011;55298;-36.624;-64.282;2023-05-28T07:53:07;4.35;;;4.10;;
59972;SDS011;55298;-36.624;-64.282;2023-05-28T07:55:35;3.85;;;3.67;;
59972;SDS011;55298;-36.624;-64.282;2023-05-28T07:58:02;4.00;;;3.80;;
59972;SDS011;55298;-36.624;-64.282;2023-05-28T08:00:31;3.90;;;3.80;;
59972;SDS011;55298;-36.624;-64.282;2023-05-28T08:03:02;4.25;;;4.15;;
59972;SDS011;55298;-36.624;-64.282;2023-05-28T08:05:30;3.67;;;3.58;;
59972;SDS011;55298;-36.624;-64.282;2023-05-28T08:07:59;4.20;;;3.90;;
59972;SDS011;55298;-36.624;-64.282;2023-05-28T08:10:27;3.88;;;3.78;;
59972;SDS011;55298;-36.624;-64.282;2023-05-28T08:12:55;3.72;;;3.63;;
59972;SDS011;55298;-36.624;-64.282;2023-05-28T08:15:23;3.30;;;3.20;;
59972;SDS011;55298;-36.624;-64.282;2023-05-28T08:17:50;3.90;;;3.80;;
59972;SDS011;55298;-36.624;-64.282;2023-05-28T08:20:18;4.20;;;3.90;;
59972;SDS011;55298;-36.624;-64.282;2023-05-28T08:22:48;3.80;;;3.70;;
59972;SDS011;55298;-36.624;-64.282;2023-05-28T08:25:16;3.75;;;3.65;;
59972;SDS011;55298;-36.624;-64.282;2023-05-28T08:27:44;4.03;;;3.80;;
59972;SDS011;55298;-36.624;-64.282;2023-05-28T08:30:12;3.92;;;3.70;;
59972;SDS011;55298;-36.624;-64.282;2023-05-28T08:32:40;4.00;;;3.90;;
59972;SDS011;55298;-36.624;-64.282;2023-05-28T08:35:07;3.92;;;3.75;;
59972;SDS011;55298;-36.624;-64.282;2023-05-28T08:37:36;4.10;;;3.90;;
59972;SDS011;55298;-36.624;-64.282;2023-05-28T08:40:05;3.75;;;3.65;;
59972;SDS011;55298;-36.624;-64.282;2023-05-28T08:42:35;3.70;;;3.60;;
59972;SDS011;55298;-36.624;-64.282;2023-05-28T08:45:04;3.88;;;3.67;;
59972;SDS011;55298;-36.624;-64.282;2023-05-28T08:47:32;3.90;;;3.70;;
59972;SDS011;55298;-36.624;-64.282;2023-05-28T08:50:04;3.97;;;3.70;;
59972;SDS011;55298;-36.624;-64.282;2023-05-28T08:52:36;4.18;;;3.72;;
59972;SDS011;55298;-36.624;-64.282;2023-05-28T08:55:04;3.90;;;3.70;;
59972;SDS011;55298;-36.624;-64.282;2023-05-28T08:57:32;3.75;;;3.50;;
59972;SDS011;55298;-36.624;-64.282;2023-05-28T09:00:01;3.55;;;3.45;;
59972;SDS011;55298;-36.624;-64.282;2023-05-28T09:02:34;3.75;;;3.53;;
59972;SDS011;55298;-36.624;-64.282;2023-05-28T09:05:05;4.15;;;3.95;;
59972;SDS011;55298;-36.624;-64.282;2023-05-28T09:07:33;4.03;;;3.80;;
59972;SDS011;55298;-36.624;-64.282;2023-05-28T09:10:02;3.47;;;3.38;;
59972;SDS011;55298;-36.624;-64.282;2023-05-28T09:12:30;4.15;;;3.95;;
59972;SDS011;55298;-36.624;-64.282;2023-05-28T09:14:58;3.78;;;3.58;;
59972;SDS011;55298;-36.624;-64.282;2023-05-28T09:17:32;3.67;;;3.58;;
59972;SDS011;55298;-36.624;-64.282;2023-05-28T09:20:08;4.05;;;3.80;;
59972;SDS011;55298;-36.624;-64.282;2023-05-28T09:22:41;3.70;;;3.60;;
59972;SDS011;55298;-36.624;-64.282;2023-05-28T09:25:10;3.90;;;3.70;;
59972;SDS011;55298;-36.624;-64.282;2023-05-28T09:27:38;4.35;;;4.15;;
59972;SDS011;55298;-36.624;-64.282;2023-05-28T09:30:11;4.20;;;3.90;;
59972;SDS011;55298;-36.624;-64.282;2023-05-28T09:32:39;4.25;;;4.05;;
59972;SDS011;55298;-36.624;-64.282;2023-05-28T09:35:07;3.83;;;3.63;;
59972;SDS011;55298;-36.624;-64.282;2023-05-28T09:37:36;3.95;;;3.85;;
59972;SDS011;55298;-36.624;-64.282;2023-05-28T09:40:06;3.70;;;3.60;;
59972;SDS011;55298;-36.624;-64.282;2023-05-28T09:42:36;4.32;;;3.60;;
59972;SDS011;55298;-36.624;-64.282;2023-05-28T09:45:08;4.22;;;4.05;;
59972;SDS011;55298;-36.624;-64.282;2023-05-28T09:47:45;6.38;;;4.20;;
59972;SDS011;55298;-36.624;-64.282;2023-05-28T09:50:13;4.30;;;4.05;;
59972;SDS011;55298;-36.624;-64.282;2023-05-28T09:52:42;3.55;;;3.45;;
59972;SDS011;55298;-36.624;-64.282;2023-05-28T09:55:14;4.30;;;4.10;;
59972;SDS011;55298;-36.624;-64.282;2023-05-28T10:00:30;3.75;;;3.65;;
59972;SDS011;55298;-36.624;-64.282;2023-05-28T10:05:50;4.10;;;3.90;;
59972;SDS011;55298;-36.624;-64.282;2023-05-28T10:08:23;3.83;;;3.72;;
59972;SDS011;55298;-36.624;-64.282;2023-05-28T10:10:53;4.28;;;4.03;;
59972;SDS011;55298;-36.624;-64.282;2023-05-28T10:13:21;3.67;;;3.58;;
59972;SDS011;55298;-36.624;-64.282;2023-05-28T10:15:49;3.95;;;3.75;;
59972;SDS011;55298;-36.624;-64.282;2023-05-28T10:18:18;3.90;;;3.80;;
59972;SDS011;55298;-36.624;-64.282;2023-05-28T10:20:46;3.65;;;3.55;;
59972;SDS011;55298;-36.624;-64.282;2023-05-28T10:23:14;3.45;;;3.35;;
59972;SDS011;55298;-36.624;-64.282;2023-05-28T10:25:44;3.47;;;3.30;;
59972;SDS011;55298;-36.624;-64.282;2023-05-28T10:28:14;3.53;;;3.42;;
59972;SDS011;55298;-36.624;-64.282;2023-05-28T10:30:43;3.55;;;3.45;;
59972;SDS011;55298;-36.624;-64.282;2023-05-28T10:33:15;4.25;;;4.07;;
59972;SDS011;55298;-36.624;-64.282;2023-05-28T10:35:50;4.22;;;3.80;;
59972;SDS011;55298;-36.624;-64.282;2023-05-28T10:38:20;6.25;;;5.85;;
59972;SDS011;55298;-36.624;-64.282;2023-05-28T10:40:48;4.75;;;4.40;;
59972;SDS011;55298;-36.624;-64.282;2023-05-28T10:46:15;4.10;;;3.90;;
59972;SDS011;55298;-36.624;-64.282;2023-05-28T10:52:07;4.03;;;3.92;;
59972;SDS011;55298;-36.624;-64.282;2023-05-28T10:54:42;3.78;;;3.67;;
59972;SDS011;55298;-36.624;-64.282;2023-05-28T10:57:15;4.15;;;3.95;;
59972;SDS011;55298;-36.624;-64.282;2023-05-28T10:59:51;3.70;;;3.60;;
59972;SDS011;55298;-36.624;-64.282;2023-05-28T11:02:25;3.60;;;3.50;;
59972;SDS011;55298;-36.624;-64.282;2023-05-28T11:04:56;3.78;;;3.67;;
59972;SDS011;55298;-36.624;-64.282;2023-05-28T11:07:31;4.20;;;3.95;;
59972;SDS011;55298;-36.624;-64.282;2023-05-28T11:10:01;4.00;;;3.80;;
59972;SDS011;55298;-36.624;-64.282;2023-05-28T11:12:31;4.32;;;4.13;;
59972;SDS011;55298;-36.624;-64.282;2023-05-28T11:15:04;4.03;;;3.83;;
59972;SDS011;55298;-36.624;-64.282;2023-05-28T11:17:38;4.07;;;3.88;;
59972;SDS011;55298;-36.624;-64.282;2023-05-28T11:20:23;3.92;;;3.72;;
59972;SDS011;55298;-36.624;-64.282;2023-05-28T11:22:52;3.97;;;3.88;;
59972;SDS011;55298;-36.624;-64.282;2023-05-28T11:25:22;3.67;;;3.55;;
59972;SDS011;55298;-36.624;-64.282;2023-05-28T11:27:52;3.88;;;3.78;;
59972;SDS011;55298;-36.624;-64.282;2023-05-28T11:30:23;4.40;;;4.30;;
59972;SDS011;55298;-36.624;-64.282;2023-05-28T11:32:51;4.20;;;4.00;;
59972;SDS011;55298;-36.624;-64.282;2023-05-28T11:35:22;4.60;;;4.20;;
59972;SDS011;55298;-36.624;-64.282;2023-05-28T11:37:50;4.10;;;3.80;;
59972;SDS011;55298;-36.624;-64.282;2023-05-28T11:40:21;4.40;;;4.00;;
59972;SDS011;55298;-36.624;-64.282;2023-05-28T11:42:49;4.30;;;4.10;;
59972;SDS011;55298;-36.624;-64.282;2023-05-28T11:45:25;3.72;;;3.63;;
59972;SDS011;55298;-36.624;-64.282;2023-05-28T11:47:54;5.03;;;4.82;;
59972;SDS011;55298;-36.624;-64.282;2023-05-28T11:50:21;3.80;;;3.67;;
59972;SDS011;55298;-36.624;-64.282;2023-05-28T11:52:49;3.78;;;3.67;;
59972;SDS011;55298;-36.624;-64.282;2023-05-28T11:55:17;3.75;;;3.65;;
59972;SDS011;55298;-36.624;-64.282;2023-05-28T11:57:52;3.67;;;3.58;;
59972;SDS011;55298;-36.624;-64.282;2023-05-28T12:00:34;3.83;;;3.72;;
59972;SDS011;55298;-36.624;-64.282;2023-05-28T12:03:03;3.97;;;3.78;;
59972;SDS011;55298;-36.624;-64.282;2023-05-28T12:05:38;4.65;;;4.25;;
59972;SDS011;55298;-36.624;-64.282;2023-05-28T12:08:06;4.65;;;4.45;;
59972;SDS011;55298;-36.624;-64.282;2023-05-28T12:10:36;4.28;;;3.97;;
59972;SDS011;55298;-36.624;-64.282;2023-05-28T12:13:05;4.10;;;4.00;;
59972;SDS011;55298;-36.624;-64.282;2023-05-28T12:15:32;3.97;;;3.75;;
59972;SDS011;55298;-36.624;-64.282;2023-05-28T12:18:01;4.20;;;4.00;;
59972;SDS011;55298;-36.624;-64.282;2023-05-28T12:20:31;4.18;;;4.07;;
59972;SDS011;55298;-36.624;-64.282;2023-05-28T12:23:08;3.53;;;3.42;;
59972;SDS011;55298;-36.624;-64.282;2023-05-28T12:25:45;3.83;;;3.70;;
59972;SDS011;55298;-36.624;-64.282;2023-05-28T12:28:14;4.30;;;4.10;;
59972;SDS011;55298;-36.624;-64.282;2023-05-28T12:30:45;4.88;;;4.68;;
59972;SDS011;55298;-36.624;-64.282;2023-05-28T12:33:16;3.92;;;3.83;;
59972;SDS011;55298;-36.624;-64.282;2023-05-28T12:35:44;3.65;;;3.53;;
59972;SDS011;55298;-36.624;-64.282;2023-05-28T12:38:13;3.67;;;3.53;;
59972;SDS011;55298;-36.624;-64.282;2023-05-28T12:40:41;4.25;;;4.07;;
59972;SDS011;55298;-36.624;-64.282;2023-05-28T12:43:09;4.38;;;4.15;;
59972;SDS011;55298;-36.624;-64.282;2023-05-28T12:45:37;4.47;;;4.28;;
59972;SDS011;55298;-36.624;-64.282;2023-05-28T12:48:05;4.20;;;4.00;;
59972;SDS011;55298;-36.624;-64.282;2023-05-28T12:50:34;4.15;;;3.95;;
59972;SDS011;55298;-36.624;-64.282;2023-05-28T12:53:02;4.03;;;3.83;;
59972;SDS011;55298;-36.624;-64.282;2023-05-28T12:55:31;3.55;;;3.35;;
59972;SDS011;55298;-36.624;-64.282;2023-05-28T12:57:59;3.38;;;3.17;;
59972;SDS011;55298;-36.624;-64.282;2023-05-28T13:00:27;4.45;;;4.25;;
59972;SDS011;55298;-36.624;-64.282;2023-05-28T13:02:55;5.00;;;4.55;;
59972;SDS011;55298;-36.624;-64.282;2023-05-28T13:05:23;4.78;;;4.38;;
59972;SDS011;55298;-36.624;-64.282;2023-05-28T13:07:51;4.88;;;4.40;;
59972;SDS011;55298;-36.624;-64.282;2023-05-28T13:10:19;4.75;;;4.53;;
59972;SDS011;55298;-36.624;-64.282;2023-05-28T13:12:47;5.55;;;5.05;;
59972;SDS011;55298;-36.624;-64.282;2023-05-28T13:15:15;4.68;;;4.28;;
59972;SDS011;55298;-36.624;-64.282;2023-05-28T13:17:43;3.00;;;2.88;;
59972;SDS011;55298;-36.624;-64.282;2023-05-28T13:20:11;3.22;;;3.03;;
59972;SDS011;55298;-36.624;-64.282;2023-05-28T13:22:39;3.97;;;3.53;;
59972;SDS011;55298;-36.624;-64.282;2023-05-28T13:25:08;3.75;;;3.55;;
59972;SDS011;55298;-36.624;-64.282;2023-05-28T13:27:38;3.60;;;3.40;;
59972;SDS011;55298;-36.624;-64.282;2023-05-28T13:30:06;3.25;;;3.15;;
59972;SDS011;55298;-36.624;-64.282;2023-05-28T13:32:36;3.53;;;3.33;;
59972;SDS011;55298;-36.624;-64.282;2023-05-28T13:35:04;3.40;;;3.20;;
59972;SDS011;55298;-36.624;-64.282;2023-05-28T13:37:32;3.90;;;3.70;;
59972;SDS011;55298;-36.624;-64.282;2023-05-28T13:40:00;3.10;;;2.92;;
59972;SDS011;55298;-36.624;-64.282;2023-05-28T13:42:33;3.80;;;3.50;;
59972;SDS011;55298;-36.624;-64.282;2023-05-28T13:45:01;2.85;;;2.75;;
59972;SDS011;55298;-36.624;-64.282;2023-05-28T13:47:29;3.45;;;3.25;;
59972;SDS011;55298;-36.624;-64.282;2023-05-28T13:49:59;3.47;;;3.20;;
59972;SDS011;55298;-36.624;-64.282;2023-05-28T13:52:27;2.70;;;2.60;;
59972;SDS011;55298;-36.624;-64.282;2023-05-28T13:54:55;3.15;;;3.00;;
59972;SDS011;55298;-36.624;-64.282;2023-05-28T13:57:23;4.90;;;3.53;;
59972;SDS011;55298;-36.624;-64.282;2023-05-28T13:59:51;3.70;;;3.40;;
59972;SDS011;55298;-36.624;-64.282;2023-05-28T14:02:18;3.60;;;3.40;;
59972;SDS011;55298;-36.624;-64.282;2023-05-28T14:04:46;3.92;;;3.55;;
59972;SDS011;55298;-36.624;-64.282;2023-05-28T14:07:15;4.00;;;3.80;;
59972;SDS011;55298;-36.624;-64.282;2023-05-28T14:09:42;4.00;;;3.70;;
59972;SDS011;55298;-36.624;-64.282;2023-05-28T14:12:12;4.50;;;4.20;;
59972;SDS011;55298;-36.624;-64.282;2023-05-28T14:14:40;5.80;;;4.55;;
59972;SDS011;55298;-36.624;-64.282;2023-05-28T14:17:08;3.60;;;3.40;;
59972;SDS011;55298;-36.624;-64.282;2023-05-28T14:19:40;6.75;;;6.13;;
59972;SDS011;55298;-36.624;-64.282;2023-05-28T14:22:08;5.35;;;4.90;;
59972;SDS011;55298;-36.624;-64.282;2023-05-28T14:24:38;7.53;;;6.78;;
59972;SDS011;55298;-36.624;-64.282;2023-05-28T14:27:06;16.58;;;10.70;;
59972;SDS011;55298;-36.624;-64.282;2023-05-28T14:29:34;7.75;;;6.95;;
59972;SDS011;55298;-36.624;-64.282;2023-05-28T14:32:05;4.97;;;4.28;;
59972;SDS011;55298;-36.624;-64.282;2023-05-28T14:34:33;5.03;;;4.57;;
59972;SDS011;55298;-36.624;-64.282;2023-05-28T14:37:01;4.30;;;3.88;;
59972;SDS011;55298;-36.624;-64.282;2023-05-28T14:39:29;4.38;;;4.05;;
59972;SDS011;55298;-36.624;-64.282;2023-05-28T14:41:56;6.03;;;5.28;;